createdAt,value
2019-05-06T00:01:24.081Z,99.90
2019-05-06T00:03:54.162Z,99.90
2019-05-06T00:06:23.669Z,99.90
2019-05-06T00:08:54.371Z,99.90
2019-05-06T00:11:23.865Z,99.90
2019-05-06T00:13:54.098Z,99.90
2019-05-06T00:16:23.806Z,99.90
2019-05-06T00:18:54.140Z,99.90
2019-05-06T00:21:24.191Z,99.90
2019-05-06T00:23:54.552Z,99.90
2019-05-06T00:26:54.983Z,99.90
2019-05-06T00:29:25.002Z,99.90
2019-05-06T00:31:53.630Z,99.90
2019-05-06T00:34:21.958Z,99.90
2019-05-06T00:36:50.197Z,99.90
2019-05-06T00:39:49.657Z,99.90
2019-05-06T00:42:29.647Z,99.90
2019-05-06T00:44:57.932Z,99.90
2019-05-06T00:47:26.236Z,99.90
2019-05-06T00:49:54.704Z,99.90
2019-05-06T00:52:23.894Z,99.90
2019-05-06T00:54:54.740Z,99.90
2019-05-06T00:57:43.781Z,99.90
2019-05-06T01:00:13.606Z,99.90
2019-05-06T01:02:43.837Z,99.90
2019-05-06T01:05:13.914Z,99.90
2019-05-06T01:07:44.052Z,99.90
2019-05-06T01:10:14.288Z,99.90
2019-05-06T01:12:46.951Z,99.90
2019-05-06T01:15:17.718Z,99.90
2019-05-06T01:17:45.964Z,99.90
2019-05-06T01:20:14.595Z,99.90
2019-05-06T01:22:43.669Z,99.90
2019-05-06T01:25:14.104Z,99.90
2019-05-06T01:27:44.284Z,99.90
2019-05-06T01:30:13.716Z,99.90
2019-05-06T01:32:43.602Z,99.90
2019-05-06T01:35:14.028Z,99.90
2019-05-06T01:37:44.177Z,99.90
2019-05-06T01:40:23.863Z,99.90
2019-05-06T01:43:05.691Z,99.90
2019-05-06T01:45:34.887Z,99.90
2019-05-06T01:48:04.012Z,99.90
2019-05-06T01:50:34.333Z,99.90
2019-05-06T01:53:04.862Z,99.90
2019-05-06T01:55:34.392Z,99.90
2019-05-06T01:58:05.115Z,99.90
2019-05-06T02:00:34.417Z,99.90
2019-05-06T02:03:04.026Z,99.90
2019-05-06T02:05:33.661Z,99.90
2019-05-06T02:08:03.987Z,99.90
2019-05-06T02:10:34.496Z,99.90
2019-05-06T02:13:03.888Z,99.90
2019-05-06T02:15:34.499Z,99.90
2019-05-06T02:18:04.145Z,99.90
2019-05-06T02:20:33.977Z,99.90
2019-05-06T02:23:08.363Z,99.90
2019-05-06T02:25:40.827Z,99.90
2019-05-06T02:28:09.063Z,99.90
2019-05-06T02:31:05.537Z,99.90
2019-05-06T02:33:55.845Z,99.90
2019-05-06T02:36:35.355Z,99.90
2019-05-06T02:39:05.519Z,99.90
2019-05-06T02:41:34.053Z,99.90
2019-05-06T02:44:03.525Z,99.90
2019-05-06T02:46:33.770Z,99.90
2019-05-06T02:49:23.646Z,99.90
2019-05-06T02:51:53.445Z,99.90
2019-05-06T02:54:23.479Z,99.90
2019-05-06T02:56:53.236Z,99.90
2019-05-06T02:59:24.066Z,99.90
2019-05-06T03:01:53.953Z,99.90
2019-05-06T03:04:23.640Z,99.90
2019-05-06T03:06:53.252Z,99.90
2019-05-06T03:09:23.319Z,99.90
2019-05-06T03:11:53.986Z,99.90
2019-05-06T03:14:23.497Z,99.90
2019-05-06T03:16:53.682Z,99.90
2019-05-06T03:19:23.995Z,99.90
2019-05-06T03:22:16.133Z,99.90
2019-05-06T03:24:46.857Z,99.90
2019-05-06T03:27:15.059Z,99.90
2019-05-06T03:29:44.497Z,99.90
2019-05-06T03:32:16.419Z,99.90
2019-05-06T03:35:01.188Z,99.90
2019-05-06T03:37:16.865Z,99.90
2019-05-06T03:39:43.513Z,99.90
2019-05-06T03:42:13.527Z,99.90
2019-05-06T03:44:44.964Z,99.90
2019-05-06T03:47:35.028Z,99.90
2019-05-06T03:50:04.709Z,99.90
2019-05-06T03:52:34.316Z,99.90
2019-05-06T03:55:03.829Z,99.90
2019-05-06T03:57:33.431Z,99.90
2019-05-06T04:00:04.687Z,99.90
2019-05-06T04:02:33.784Z,99.90
2019-05-06T04:05:03.876Z,99.90
2019-05-06T04:07:34.046Z,99.90
2019-05-06T04:10:03.542Z,99.90
2019-05-06T04:12:33.107Z,99.90
2019-05-06T04:15:03.954Z,99.90
2019-05-06T04:17:53.462Z,99.90
2019-05-06T04:20:38.212Z,99.90
2019-05-06T04:23:24.336Z,99.90
2019-05-06T04:26:03.295Z,99.90
2019-05-06T04:28:34.206Z,99.90
2019-05-06T04:31:02.803Z,99.90
2019-05-06T04:33:33.257Z,99.90
2019-05-06T04:36:03.625Z,99.90
2019-05-06T04:38:33.485Z,99.90
2019-05-06T04:41:02.987Z,99.90
2019-05-06T04:43:33.698Z,99.90
2019-05-06T04:46:03.182Z,99.90
2019-05-06T04:48:32.995Z,99.90
2019-05-06T04:51:03.322Z,99.90
2019-05-06T04:53:33.945Z,99.90
2019-05-06T04:59:43.277Z,99.90
2019-05-06T05:02:23.021Z,99.90
2019-05-06T05:04:45.102Z,99.90
2019-05-06T05:07:13.319Z,99.90
2019-05-06T05:09:42.953Z,99.90
2019-05-06T05:12:18.385Z,99.90
2019-05-06T05:15:04.386Z,99.90
2019-05-06T05:17:52.631Z,99.90
2019-05-06T05:20:36.536Z,99.90
2019-05-06T05:22:52.823Z,99.90
2019-05-06T05:25:22.225Z,99.90
2019-05-06T05:27:50.502Z,99.90
2019-05-06T05:30:18.905Z,99.90
2019-05-06T05:32:47.191Z,99.90
2019-05-06T05:35:15.471Z,99.90
2019-05-06T05:37:44.070Z,99.90
2019-05-06T05:40:13.126Z,99.90
2019-05-06T05:42:52.112Z,99.90
2019-05-06T05:45:22.141Z,99.90
2019-05-06T05:47:53.239Z,99.90
2019-05-06T05:50:28.133Z,99.90
2019-05-06T05:52:56.354Z,99.90
2019-05-06T05:55:24.594Z,99.90
2019-05-06T05:57:52.837Z,99.90
2019-05-06T06:00:22.975Z,99.90
2019-05-06T06:02:53.048Z,99.90
2019-05-06T06:05:21.915Z,99.90
2019-05-06T06:07:50.342Z,99.90
2019-05-06T06:10:35.070Z,99.90
2019-05-06T06:13:03.364Z,99.90
2019-05-06T06:15:54.890Z,99.90
2019-05-06T06:18:52.437Z,99.90
2019-05-06T06:21:39.501Z,99.90
2019-05-06T06:24:13.121Z,99.90
2019-05-06T06:26:42.990Z,99.90
2019-05-06T06:29:12.501Z,99.90
2019-05-06T06:31:58.752Z,99.90
2019-05-06T06:34:34.231Z,99.90
2019-05-06T06:37:22.493Z,99.90
2019-05-06T06:39:52.661Z,99.90
2019-05-06T06:42:22.222Z,99.90
2019-05-06T06:44:52.183Z,99.90
2019-05-06T06:47:22.503Z,99.90
2019-05-06T06:49:53.314Z,99.90
2019-05-06T06:52:23.157Z,99.90
2019-05-06T06:54:52.730Z,99.90
2019-05-06T06:57:42.459Z,99.90
2019-05-06T07:00:38.789Z,99.90
2019-05-06T07:03:16.220Z,99.90
2019-05-06T07:06:02.662Z,99.90
2019-05-06T07:08:37.162Z,99.90
2019-05-06T07:11:02.227Z,99.90
2019-05-06T07:13:32.567Z,99.90
2019-05-06T07:16:02.769Z,99.90
2019-05-06T07:18:30.465Z,99.90
2019-05-06T07:21:14.106Z,99.90
2019-05-06T07:23:42.623Z,99.90
2019-05-06T07:26:12.524Z,99.90
2019-05-06T07:28:43.621Z,99.90
2019-05-06T07:31:21.967Z,99.90
2019-05-06T07:33:42.957Z,99.90
2019-05-06T07:36:13.010Z,99.90
2019-05-06T07:38:49.706Z,99.90
2019-05-06T07:41:23.525Z,99.90
2019-05-06T07:44:09.562Z,99.90
2019-05-06T07:47:08.773Z,99.90
2019-05-06T07:49:37.054Z,99.90
2019-05-06T07:52:05.314Z,99.90
2019-05-06T07:54:33.510Z,99.90
2019-05-06T07:57:02.441Z,99.90
2019-05-06T07:59:33.248Z,99.90
2019-05-06T08:02:02.264Z,99.90
2019-05-06T08:04:32.464Z,99.90
2019-05-06T08:07:02.941Z,99.90
2019-05-06T08:09:32.598Z,99.90
2019-05-06T08:12:02.832Z,99.90
2019-05-06T08:14:43.535Z,99.90
2019-05-06T08:17:15.990Z,99.90
2019-05-06T08:19:44.228Z,99.90
2019-05-06T08:22:15.936Z,99.90
2019-05-06T08:24:44.215Z,99.90
2019-05-06T08:27:12.559Z,99.90
2019-05-06T08:29:42.464Z,99.90
2019-05-06T08:32:12.277Z,99.90
2019-05-06T08:34:42.148Z,99.90
2019-05-06T08:37:22.760Z,99.90
2019-05-06T08:39:52.666Z,99.90
2019-05-06T08:42:22.421Z,99.90
2019-05-06T08:44:53.043Z,99.90
2019-05-06T08:47:22.368Z,99.90
2019-05-06T08:50:02.566Z,99.90
2019-05-06T08:52:52.173Z,99.90
2019-05-06T08:55:27.259Z,99.90
2019-05-06T08:57:55.603Z,99.90
2019-05-06T09:00:23.962Z,99.90
2019-05-06T09:02:53.001Z,99.90
2019-05-06T09:05:22.256Z,99.90
2019-05-06T09:07:52.373Z,99.90
2019-05-06T09:10:22.800Z,99.90
2019-05-06T09:12:52.577Z,99.90
2019-05-06T09:15:22.005Z,99.90
2019-05-06T09:17:52.503Z,99.90
2019-05-06T09:20:20.415Z,99.90
2019-05-06T09:22:48.660Z,99.90
2019-05-06T09:25:16.893Z,99.90
2019-05-06T09:28:02.524Z,99.90
2019-05-06T09:30:35.403Z,99.90
2019-05-06T09:33:03.682Z,99.90
2019-05-06T09:35:32.934Z,99.90
2019-05-06T09:38:02.171Z,99.90
2019-05-06T09:40:31.898Z,99.90
2019-05-06T09:43:04.469Z,99.90
2019-05-06T09:45:30.465Z,99.90
2019-05-06T09:48:08.401Z,99.90
2019-05-06T09:50:38.421Z,99.90
2019-05-06T09:53:08.623Z,99.90
2019-05-06T09:55:45.198Z,99.90
2019-05-06T09:58:13.476Z,99.90
2019-05-06T10:00:44.127Z,99.90
2019-05-06T10:03:12.563Z,99.90
2019-05-06T10:05:42.523Z,99.90
2019-05-06T10:08:12.382Z,99.90
2019-05-06T10:10:55.243Z,99.90
2019-05-06T10:13:12.856Z,99.90
2019-05-06T10:15:42.856Z,99.90
2019-05-06T10:18:13.159Z,99.90
2019-05-06T10:20:44.022Z,99.90
2019-05-06T10:23:12.764Z,99.90
2019-05-06T10:25:43.382Z,99.90
2019-05-06T10:28:33.490Z,99.90
2019-05-06T10:31:02.377Z,99.90
2019-05-06T10:33:32.410Z,99.90
2019-05-06T10:36:04.619Z,99.90
2019-05-06T10:38:42.401Z,99.60
2019-05-06T10:41:12.989Z,98.70
2019-05-06T10:43:49.403Z,99.10
2019-05-06T10:46:17.654Z,99.20
2019-05-06T10:48:45.928Z,98.50
2019-05-06T10:51:22.985Z,98.30
2019-05-06T10:53:51.368Z,98.10
2019-05-06T10:56:49.843Z,98.40
2019-05-06T10:59:07.724Z,99.00
2019-05-06T11:01:38.800Z,98.90
2019-05-06T11:04:07.045Z,98.70
2019-05-06T11:06:35.319Z,99.20
2019-05-06T11:09:05.813Z,98.90
2019-05-06T11:11:38.386Z,98.90
2019-05-06T11:14:04.365Z,99.10
2019-05-06T11:16:33.266Z,98.20
2019-05-06T11:19:02.131Z,99.00
2019-05-06T11:21:32.830Z,97.70
2019-05-06T11:24:01.312Z,97.60
2019-05-06T11:26:29.565Z,97.50
2019-05-06T11:29:05.131Z,97.10
2019-05-06T11:31:54.269Z,96.10
2019-05-06T11:34:46.607Z,97.40
2019-05-06T11:37:46.928Z,97.70
2019-05-06T11:40:16.476Z,96.90
2019-05-06T11:42:40.013Z,96.00
2019-05-06T11:45:08.518Z,95.20
2019-05-06T11:47:36.745Z,94.90
2019-05-06T11:50:05.638Z,94.00
2019-05-06T11:52:34.587Z,95.50
2019-05-06T11:55:03.308Z,95.30
2019-05-06T11:57:32.609Z,95.40
2019-05-06T12:00:03.021Z,95.10
2019-05-06T12:02:33.007Z,95.10
2019-05-06T12:05:02.318Z,94.60
2019-05-06T12:07:33.055Z,95.00
2019-05-06T12:10:02.516Z,94.40
2019-05-06T12:12:31.029Z,95.10
2019-05-06T12:14:59.303Z,94.80
2019-05-06T12:17:27.583Z,94.20
2019-05-06T12:19:56.231Z,94.80
2019-05-06T12:22:27.683Z,94.80
2019-05-06T12:24:55.957Z,93.90
2019-05-06T12:27:43.076Z,94.10
2019-05-06T12:30:12.315Z,94.30
2019-05-06T12:32:45.589Z,95.20
2019-05-06T12:35:13.855Z,95.70
2019-05-06T12:37:44.145Z,95.50
2019-05-06T12:40:12.541Z,95.20
2019-05-06T12:42:45.226Z,94.70
2019-05-06T12:45:33.004Z,95.60
2019-05-06T12:48:33.169Z,96.00
2019-05-06T12:51:03.214Z,96.30
2019-05-06T12:53:32.805Z,96.90
2019-05-06T12:56:03.200Z,97.40
2019-05-06T12:58:31.425Z,96.80
2019-05-06T13:00:59.689Z,96.90
2019-05-06T13:03:31.468Z,97.20
2019-05-06T13:05:58.071Z,97.70
2019-05-06T13:08:32.658Z,98.60
2019-05-06T13:10:56.384Z,99.00
2019-05-06T13:13:24.780Z,98.70
2019-05-06T13:15:53.065Z,98.80
2019-05-06T13:18:23.139Z,98.30
2019-05-06T13:20:53.111Z,97.80
2019-05-06T13:23:27.389Z,98.20
2019-05-06T13:25:55.772Z,98.10
2019-05-06T13:28:30.333Z,98.80
2019-05-06T13:31:12.402Z,99.40
2019-05-06T13:33:48.382Z,99.90
2019-05-06T13:36:16.970Z,99.50
2019-05-06T13:38:45.346Z,99.90
2019-05-06T13:41:13.588Z,99.50
2019-05-06T13:43:46.095Z,99.90
2019-05-06T13:46:23.653Z,99.70
2019-05-06T13:49:15.436Z,99.70
2019-05-06T13:51:48.908Z,99.20
2019-05-06T13:54:17.199Z,99.10
2019-05-06T13:56:48.732Z,99.10
2019-05-06T13:59:15.505Z,99.90
2019-05-06T14:01:52.684Z,99.90
2019-05-06T14:04:23.816Z,99.90
2019-05-06T14:06:53.053Z,99.90
2019-05-06T14:09:31.260Z,99.90
2019-05-06T14:11:52.525Z,99.90
2019-05-06T14:14:22.675Z,99.90
2019-05-06T14:16:53.366Z,99.90
2019-05-06T14:19:22.487Z,99.90
2019-05-06T14:21:52.814Z,99.90
2019-05-06T14:24:22.187Z,99.90
2019-05-06T14:26:58.554Z,99.90
2019-05-06T14:29:35.974Z,99.90
2019-05-06T14:32:04.605Z,99.90
2019-05-06T14:34:32.921Z,99.90
2019-05-06T14:37:01.293Z,99.90
2019-05-06T14:39:49.143Z,99.90
2019-05-06T14:42:04.279Z,99.90
2019-05-06T14:44:32.885Z,99.90
2019-05-06T14:47:06.110Z,99.90
2019-05-06T14:49:34.841Z,99.90
2019-05-06T14:52:03.149Z,99.90
2019-05-06T14:54:33.092Z,99.90
2019-05-06T14:57:08.462Z,99.90
2019-05-06T14:59:36.792Z,99.90
2019-05-06T15:02:05.136Z,99.90
2019-05-06T15:04:33.541Z,99.90
2019-05-06T15:07:02.287Z,99.90
2019-05-06T15:09:32.989Z,99.90
2019-05-06T15:12:02.334Z,99.90
2019-05-06T15:14:33.022Z,99.90
2019-05-06T15:17:02.220Z,99.90
2019-05-06T15:19:30.800Z,99.90
2019-05-06T15:21:59.115Z,99.90
2019-05-06T15:24:27.476Z,99.90
2019-05-06T15:26:57.151Z,99.90
2019-05-06T15:29:25.482Z,99.90
2019-05-06T15:32:25.146Z,99.90
2019-05-06T15:35:12.800Z,99.90
2019-05-06T15:37:46.276Z,99.90
2019-05-06T15:40:30.762Z,99.90
2019-05-06T15:42:46.426Z,99.90
2019-05-06T15:45:14.777Z,99.90
2019-05-06T15:47:43.284Z,99.90
2019-05-06T15:50:12.771Z,99.90
2019-05-06T15:52:43.588Z,99.90
2019-05-06T15:55:11.938Z,99.90
2019-05-06T15:57:40.290Z,99.90
2019-05-06T16:00:09.326Z,99.90
2019-05-06T16:02:37.596Z,99.90
2019-05-06T16:05:14.055Z,99.90
2019-05-06T16:07:37.327Z,99.90
2019-05-06T16:10:06.768Z,99.90
2019-05-06T16:12:35.164Z,99.90
2019-05-06T16:15:03.590Z,99.90
2019-05-06T16:17:32.821Z,99.90
2019-05-06T16:20:02.719Z,99.90
2019-05-06T16:22:33.669Z,99.90
2019-05-06T16:25:08.485Z,99.90
2019-05-06T16:27:37.121Z,99.90
2019-05-06T16:30:06.413Z,99.90
2019-05-06T16:32:35.649Z,99.90
2019-05-06T16:35:04.507Z,99.90
2019-05-06T16:37:33.048Z,99.90
2019-05-06T16:40:02.827Z,99.90
2019-05-06T16:42:32.166Z,99.90
2019-05-06T16:45:06.806Z,99.90
2019-05-06T16:47:38.691Z,99.90
2019-05-06T16:50:08.411Z,99.90
2019-05-06T16:52:36.747Z,99.90
2019-05-06T16:55:05.579Z,99.90
2019-05-06T16:57:34.023Z,99.90
2019-05-06T17:00:03.043Z,99.90
2019-05-06T17:02:41.983Z,99.90
2019-05-06T17:05:29.517Z,99.90
2019-05-06T17:07:59.355Z,99.90
2019-05-06T17:10:27.978Z,99.90
2019-05-06T17:12:57.671Z,99.90
2019-05-06T17:15:26.904Z,99.90
2019-05-06T17:17:55.254Z,99.90
2019-05-06T17:20:23.782Z,99.90
2019-05-06T17:22:53.173Z,99.90
2019-05-06T17:25:22.531Z,99.90
2019-05-06T17:27:52.623Z,99.90
2019-05-06T17:30:38.470Z,99.90
2019-05-06T17:33:24.758Z,99.90
2019-05-06T17:35:53.292Z,99.90
2019-05-06T17:38:26.286Z,99.90
2019-05-06T17:40:55.111Z,99.90
2019-05-06T17:43:24.130Z,99.90
2019-05-06T17:46:02.260Z,99.90
2019-05-06T17:48:52.938Z,99.90
2019-05-06T17:51:29.467Z,99.90
2019-05-06T17:53:58.699Z,99.90
2019-05-06T17:56:27.174Z,99.90
2019-05-06T17:58:55.514Z,99.90
2019-05-06T18:01:33.353Z,99.90
2019-05-06T18:04:02.938Z,99.90
2019-05-06T18:06:34.691Z,99.90
2019-05-06T18:09:05.701Z,99.90
2019-05-06T18:11:34.227Z,99.90
2019-05-06T18:14:04.294Z,99.90
2019-05-06T18:16:33.584Z,99.90
2019-05-06T18:19:03.130Z,99.90
2019-05-06T18:21:32.037Z,99.90
2019-05-06T18:24:02.830Z,99.90
2019-05-06T18:26:32.735Z,99.90
2019-05-06T18:29:00.623Z,99.90
2019-05-06T18:31:29.255Z,99.90
2019-05-06T18:33:58.045Z,99.90
2019-05-06T18:36:26.555Z,99.90
2019-05-06T18:38:54.903Z,99.90
2019-05-06T18:41:23.688Z,99.90
2019-05-06T18:43:53.487Z,99.90
2019-05-06T18:46:22.266Z,99.90
2019-05-06T18:48:52.433Z,99.90
2019-05-06T18:51:22.331Z,99.90
2019-05-06T18:53:52.437Z,99.90
2019-05-06T18:56:22.386Z,99.90
2019-05-06T18:58:53.076Z,99.90
2019-05-06T19:01:23.215Z,99.90
2019-05-06T19:04:00.869Z,99.90
2019-05-06T19:06:29.727Z,99.90
2019-05-06T19:09:15.768Z,99.90
2019-05-06T19:11:44.409Z,99.90
2019-05-06T19:14:12.879Z,99.90
2019-05-06T19:16:49.926Z,99.90
2019-05-06T19:19:12.440Z,99.90
2019-05-06T19:21:42.853Z,99.90
2019-05-06T19:24:12.336Z,99.90
2019-05-06T19:26:42.801Z,99.90
2019-05-06T19:29:12.293Z,99.90
2019-05-06T19:31:44.757Z,99.90
2019-05-06T19:34:12.929Z,99.90
2019-05-06T19:36:42.273Z,99.90
2019-05-06T19:39:14.304Z,99.90
2019-05-06T19:41:42.842Z,99.90
2019-05-06T19:44:12.877Z,99.90
2019-05-06T19:46:42.386Z,99.90
2019-05-06T19:49:10.959Z,99.90
2019-05-06T19:51:39.361Z,99.90
2019-05-06T19:54:08.059Z,99.90
2019-05-06T19:56:36.417Z,99.90
2019-05-06T19:59:07.285Z,99.90
2019-05-06T20:01:36.908Z,99.90
2019-05-06T20:04:05.300Z,99.90
2019-05-06T20:06:48.801Z,99.90
2019-05-06T20:09:36.127Z,99.90
2019-05-06T20:12:08.952Z,99.90
2019-05-06T20:14:37.346Z,99.90
2019-05-06T20:17:08.668Z,99.90
2019-05-06T20:19:37.311Z,99.90
2019-05-06T20:22:05.848Z,99.90
2019-05-06T20:24:34.324Z,99.90
2019-05-06T20:27:02.647Z,99.90
2019-05-06T20:29:32.976Z,99.90
2019-05-06T20:32:01.225Z,99.90
2019-05-06T20:34:31.957Z,99.90
2019-05-06T20:37:01.927Z,99.90
2019-05-06T20:39:31.926Z,99.90
2019-05-06T20:42:02.735Z,99.90
2019-05-06T20:44:32.487Z,99.90
2019-05-06T20:47:02.936Z,99.90
2019-05-06T20:49:33.130Z,99.90
2019-05-06T20:52:01.004Z,99.90
2019-05-06T20:54:29.484Z,99.90
2019-05-06T20:56:58.253Z,99.90
2019-05-06T20:59:26.664Z,99.90
2019-05-06T21:01:55.391Z,99.90
2019-05-06T21:04:24.018Z,99.90
2019-05-06T21:06:52.381Z,99.90
2019-05-06T21:09:23.128Z,99.90
2019-05-06T21:11:52.641Z,99.90
2019-05-06T21:14:22.689Z,99.90
2019-05-06T21:16:50.900Z,99.90
2019-05-06T21:19:19.288Z,99.90
2019-05-06T21:21:47.928Z,99.90
2019-05-06T21:24:16.375Z,99.90
2019-05-06T21:26:46.999Z,99.90
2019-05-06T21:29:15.268Z,99.90
2019-05-06T21:31:43.620Z,99.90
2019-05-06T21:34:12.902Z,99.90
2019-05-06T21:36:42.913Z,99.90
2019-05-06T21:39:13.041Z,99.90
2019-05-06T21:41:42.682Z,99.90
2019-05-06T21:44:13.301Z,99.90
2019-05-06T21:46:42.861Z,99.90
2019-05-06T21:49:13.083Z,99.90
2019-05-06T21:51:42.564Z,99.90
2019-05-06T21:54:13.783Z,99.90
2019-05-06T21:56:42.564Z,99.90
2019-05-06T21:59:12.919Z,99.90
2019-05-06T22:01:43.011Z,99.90
2019-05-06T22:04:12.831Z,99.90
2019-05-06T22:06:42.766Z,99.90
2019-05-06T22:09:12.141Z,99.90
2019-05-06T22:11:42.410Z,99.90
2019-05-06T22:14:12.281Z,99.90
2019-05-06T22:16:43.517Z,99.90
2019-05-06T22:19:12.080Z,99.90
2019-05-06T22:21:56.651Z,99.90
2019-05-06T22:24:27.297Z,99.90
2019-05-06T22:26:55.639Z,99.90
2019-05-06T22:29:24.441Z,99.90
2019-05-06T22:31:52.977Z,99.90
2019-05-06T22:34:22.084Z,99.90
2019-05-06T22:36:51.897Z,99.90
2019-05-06T22:39:22.679Z,99.90
2019-05-06T22:41:52.030Z,99.90
2019-05-06T22:44:22.620Z,99.90
2019-05-06T22:46:50.476Z,99.90
2019-05-06T22:49:18.738Z,99.90
2019-05-06T22:51:47.009Z,99.90
2019-05-06T22:54:15.248Z,99.90
2019-05-06T22:56:43.482Z,99.90
2019-05-06T22:59:12.667Z,99.90
2019-05-06T23:02:13.260Z,99.90
2019-05-06T23:04:43.090Z,99.90
2019-05-06T23:07:14.234Z,99.90
2019-05-06T23:09:42.931Z,99.90
2019-05-06T23:12:12.311Z,99.90
2019-05-06T23:14:42.024Z,99.90
2019-05-06T23:17:12.603Z,99.90
2019-05-06T23:19:42.595Z,99.90
2019-05-06T23:22:12.070Z,99.90
2019-05-06T23:24:40.595Z,99.90
2019-05-06T23:27:09.040Z,99.90
2019-05-06T23:29:37.373Z,99.90
2019-05-06T23:32:05.694Z,99.90
2019-05-06T23:34:34.086Z,99.90
2019-05-06T23:37:28.083Z,99.90
2019-05-06T23:40:16.121Z,99.90
2019-05-06T23:43:03.237Z,99.90
2019-05-06T23:45:49.773Z,99.90
2019-05-06T23:48:35.788Z,99.90
2019-05-06T23:51:22.443Z,99.90
2019-05-06T23:54:08.329Z,99.90
2019-05-06T23:56:38.864Z,99.90
2019-05-06T23:59:07.162Z,99.90
